Yorkshire, Pennsylvania
Current Conditions -  °F | °C
As of 2:53 PM on Sunday 23 Nov 2014 (Local Time) from KTHV Reporting Station
Clear Clear  
Wind Chill: 57°   Ceiling: Unl
Heat Index: 57°   Visibility: 10mi
Dew Point: 23°   Wind: 7mph
Humidity: 27%   Direction: 180°S
Pressure: 30.08"   Gusts: NA
Location:  39.9768°N, 76.6853°W
Report Text: KTHV 231953Z AUTO 18006KT 10SM CLR 14/M05 A3008 RMK AO2 SLP188 T01391050
Loading
Personal Weather Stations






























Interactive Weather Map New forecast layout! Learn more

10-Day Weather Forecast

Advertisements
Track Severe Weather on mobile